Time;durP1;ratioP1;P1;durP2;ratioP2;P2;SDS_P1;SDS_P2;PMS_P1;PMS_P2;Temp;Humidity;BMP_temperature;BMP_pressure;BME280_temperature;BME280_humidity;BME280_pressure;Samples;Min_cycle;Max_cycle;Signal;HPM_P1;HPM_P2
2023/07/12 00:01:24;;;;;;;5.50;3.58;;;;;;;;;;5034403;28;20041;-78
2023/07/12 00:03:49;;;;;;;5.90;3.60;;;;;;;;;;5018409;28;20032;-77
2023/07/12 00:06:41;;;;;;;6.80;3.60;;;;;;;;;;5034764;28;20021;-77
2023/07/12 00:09:13;;;;;;;7.30;3.85;;;;;;;;;;5032787;28;20060;-77
2023/07/12 00:11:38;;;;;;;5.18;3.70;;;;;;;;;;5035760;28;20103;-77
2023/07/12 00:14:03;;;;;;;5.30;3.58;;;;;;;;;;5034404;28;20478;-77
2023/07/12 00:16:33;;;;;;;4.68;3.53;;;;;;;;;;5036588;28;20029;-77
2023/07/12 00:18:59;;;;;;;6.63;3.90;;;;;;;;;;5017325;28;20896;-77
2023/07/12 00:21:27;;;;;;;6.15;3.30;;;;;;;;;;5017997;28;20021;-77
2023/07/12 00:23:53;;;;;;;6.18;4.07;;;;;;;;;;5020943;28;20064;-77
2023/07/12 00:26:21;;;;;;;5.50;3.75;;;;;;;;;;5017873;28;20029;-77
2023/07/12 00:28:46;;;;;;;6.40;4.28;;;;;;;;;;5035061;28;20120;-77
2023/07/12 00:31:12;;;;;;;7.00;4.30;;;;;;;;;;5035472;28;20557;-76
2023/07/12 00:33:37;;;;;;;6.85;3.78;;;;;;;;;;5035056;28;20029;-77
2023/07/12 00:36:04;;;;;;;5.72;3.35;;;;;;;;;;5017135;28;20017;-77
2023/07/12 00:38:31;;;;;;;8.57;3.97;;;;;;;;;;5034054;28;20029;-77
2023/07/12 00:41:19;;;;;;;4.88;3.90;;;;;;;;;;5035299;28;20458;-77
2023/07/12 00:43:54;;;;;;;6.30;4.00;;;;;;;;;;5034907;28;20033;-77
2023/07/12 00:46:33;;;;;;;6.07;4.25;;;;;;;;;;5033936;28;20025;-77
2023/07/12 00:48:58;;;;;;;5.85;3.80;;;;;;;;;;5033455;28;20026;-77
2023/07/12 00:51:27;;;;;;;5.57;4.78;;;;;;;;;;5017206;28;20079;-77
2023/07/12 00:53:53;;;;;;;6.72;3.67;;;;;;;;;;5035091;28;20036;-77
2023/07/12 00:56:18;;;;;;;6.63;3.60;;;;;;;;;;5016693;28;20108;-77
2023/07/12 00:58:46;;;;;;;5.28;4.18;;;;;;;;;;5013264;28;20108;-77
2023/07/12 01:01:13;;;;;;;8.52;3.90;;;;;;;;;;4999942;28;20026;-77
2023/07/12 01:03:41;;;;;;;5.15;4.03;;;;;;;;;;4997931;28;20380;-77
2023/07/12 01:06:08;;;;;;;7.75;3.80;;;;;;;;;;5012072;28;20014;-77
2023/07/12 01:08:35;;;;;;;5.32;3.70;;;;;;;;;;5013841;28;20099;-76
2023/07/12 01:11:02;;;;;;;5.93;3.65;;;;;;;;;;5013699;28;20022;-77
2023/07/12 01:13:29;;;;;;;6.07;3.97;;;;;;;;;;5028033;28;20033;-77
2023/07/12 01:15:55;;;;;;;6.57;3.55;;;;;;;;;;5034296;28;20031;-77
2023/07/12 01:18:20;;;;;;;7.97;3.92;;;;;;;;;;5033431;28;20021;-76
2023/07/12 01:20:46;;;;;;;5.75;3.28;;;;;;;;;;5033410;28;20025;-77
2023/07/12 01:23:11;;;;;;;5.72;3.83;;;;;;;;;;5034568;28;20488;-77
2023/07/12 01:25:40;;;;;;;6.20;3.85;;;;;;;;;;5033128;28;20025;-77
2023/07/12 01:28:06;;;;;;;6.30;3.88;;;;;;;;;;5016770;28;20022;-76
2023/07/12 01:30:33;;;;;;;7.68;4.45;;;;;;;;;;5016822;28;20099;-77
2023/07/12 01:32:58;;;;;;;7.00;3.72;;;;;;;;;;5016737;28;20051;-77
2023/07/12 01:35:23;;;;;;;7.95;4.38;;;;;;;;;;5016327;28;20104;-77
2023/07/12 01:37:49;;;;;;;6.70;4.13;;;;;;;;;;5034870;28;20025;-77
2023/07/12 01:40:14;;;;;;;5.03;3.83;;;;;;;;;;5036649;28;20029;-77
2023/07/12 01:42:39;;;;;;;6.15;3.90;;;;;;;;;;5037466;28;20017;-78
2023/07/12 01:45:05;;;;;;;7.70;4.32;;;;;;;;;;5037185;28;20079;-77
2023/07/12 01:47:31;;;;;;;7.53;3.70;;;;;;;;;;5042442;23;20046;-70
2023/07/12 01:49:56;;;;;;;7.32;4.32;;;;;;;;;;5015059;28;20131;-68
2023/07/12 01:52:22;;;;;;;6.72;3.75;;;;;;;;;;5034007;28;20108;-70
2023/07/12 01:54:48;;;;;;;6.28;4.10;;;;;;;;;;5016486;28;20029;-70
2023/07/12 01:57:13;;;;;;;6.80;4.53;;;;;;;;;;5032860;28;20025;-70
2023/07/12 01:59:39;;;;;;;5.53;3.97;;;;;;;;;;5033763;28;20470;-70
2023/07/12 02:02:04;;;;;;;8.02;4.75;;;;;;;;;;5034195;28;20033;-70
2023/07/12 02:04:30;;;;;;;6.75;4.80;;;;;;;;;;5034010;28;20021;-70
2023/07/12 02:06:55;;;;;;;7.10;4.07;;;;;;;;;;5033805;28;20478;-68
2023/07/12 02:09:20;;;;;;;8.80;4.32;;;;;;;;;;5033891;28;20470;-68
2023/07/12 02:11:45;;;;;;;6.00;4.90;;;;;;;;;;5033056;28;20021;-70
2023/07/12 02:14:11;;;;;;;7.95;4.40;;;;;;;;;;5034168;28;20029;-70
2023/07/12 02:16:36;;;;;;;7.30;5.00;;;;;;;;;;5033561;28;20029;-68
2023/07/12 02:19:02;;;;;;;6.78;5.28;;;;;;;;;;5033482;28;20032;-70
2023/07/12 02:21:27;;;;;;;11.23;5.43;;;;;;;;;;5033536;28;20036;-68
2023/07/12 02:23:52;;;;;;;8.23;5.60;;;;;;;;;;5033801;28;20441;-70
2023/07/12 02:26:18;;;;;;;10.52;6.38;;;;;;;;;;5032888;28;20075;-70
2023/07/12 02:28:43;;;;;;;9.20;5.43;;;;;;;;;;5033745;28;20474;-69
2023/07/12 02:31:22;;;;;;;8.82;5.05;;;;;;;;;;5033344;28;20018;-68
2023/07/12 02:33:48;;;;;;;8.38;5.15;;;;;;;;;;5032414;28;20455;-68
2023/07/12 02:36:14;;;;;;;9.00;5.28;;;;;;;;;;5016025;28;20057;-69
2023/07/12 02:38:39;;;;;;;7.32;5.18;;;;;;;;;;5032707;28;20032;-68
2023/07/12 02:41:06;;;;;;;5.53;4.30;;;;;;;;;;5033255;28;20386;-68
2023/07/12 02:43:31;;;;;;;7.28;4.88;;;;;;;;;;5020912;28;20022;-68
2023/07/12 02:45:57;;;;;;;10.68;5.30;;;;;;;;;;5022347;28;20087;-69
2023/07/12 02:48:22;;;;;;;6.20;3.85;;;;;;;;;;5012819;28;20117;-69
2023/07/12 02:50:47;;;;;;;7.03;4.43;;;;;;;;;;5021598;28;20029;-70
2023/07/12 02:53:17;;;;;;;7.45;4.18;;;;;;;;;;5027057;28;20479;-70
2023/07/12 02:55:42;;;;;;;7.70;3.78;;;;;;;;;;5031926;28;20028;-70
2023/07/12 02:58:07;;;;;;;5.40;4.03;;;;;;;;;;5032419;28;20116;-70
2023/07/12 03:00:33;;;;;;;5.07;3.80;;;;;;;;;;5031166;28;20022;-69
2023/07/12 03:02:58;;;;;;;3.88;2.80;;;;;;;;;;5032283;28;20441;-70
2023/07/12 03:05:23;;;;;;;6.65;3.40;;;;;;;;;;5033305;28;20037;-69
2023/07/12 03:07:48;;;;;;;5.22;3.72;;;;;;;;;;5034606;28;20104;-70
2023/07/12 03:10:14;;;;;;;4.57;3.15;;;;;;;;;;5035907;28;20478;-70
2023/07/12 03:12:39;;;;;;;4.35;3.00;;;;;;;;;;5027151;28;20021;-69
2023/07/12 03:15:05;;;;;;;5.07;3.35;;;;;;;;;;5033329;28;20499;-69
2023/07/12 03:17:30;;;;;;;6.45;3.60;;;;;;;;;;5034823;28;20482;-69
2023/07/12 03:19:55;;;;;;;6.15;3.75;;;;;;;;;;5031240;28;20033;-70
2023/07/12 03:22:21;;;;;;;5.10;3.53;;;;;;;;;;5017079;28;20152;-70
2023/07/12 03:24:46;;;;;;;5.38;4.18;;;;;;;;;;5016853;28;20387;-70
2023/07/12 03:27:11;;;;;;;4.90;4.13;;;;;;;;;;5017004;28;20099;-70
2023/07/12 03:29:37;;;;;;;7.80;4.57;;;;;;;;;;5016833;28;20172;-70
2023/07/12 03:32:02;;;;;;;6.38;5.20;;;;;;;;;;5016302;28;20021;-70
2023/07/12 03:34:31;;;;;;;6.03;4.10;;;;;;;;;;5017429;28;20041;-70
2023/07/12 03:36:56;;;;;;;6.25;4.78;;;;;;;;;;5016726;28;20503;-69
2023/07/12 03:39:21;;;;;;;7.43;5.15;;;;;;;;;;5020454;28;20032;-70
2023/07/12 03:41:47;;;;;;;10.88;5.85;;;;;;;;;;5027715;28;20449;-69
2023/07/12 03:44:12;;;;;;;7.38;4.93;;;;;;;;;;5027743;28;20014;-69
2023/07/12 03:46:37;;;;;;;6.90;4.93;;;;;;;;;;5035846;28;20033;-69
2023/07/12 03:49:03;;;;;;;5.47;3.60;;;;;;;;;;5036014;28;20554;-70
2023/07/12 03:51:28;;;;;;;6.43;5.00;;;;;;;;;;5036194;28;20025;-69
2023/07/12 03:53:53;;;;;;;7.28;5.90;;;;;;;;;;5036264;28;20498;-70
2023/07/12 03:56:19;;;;;;;7.45;4.63;;;;;;;;;;5035567;28;20029;-70
2023/07/12 03:58:44;;;;;;;8.50;5.70;;;;;;;;;;5036188;28;20079;-70
2023/07/12 04:01:11;;;;;;;7.55;4.97;;;;;;;;;;5036180;28;20018;-70
2023/07/12 04:03:37;;;;;;;6.07;4.10;;;;;;;;;;5034747;28;20026;-70
2023/07/12 04:06:03;;;;;;;4.68;3.28;;;;;;;;;;5018497;28;20492;-70
2023/07/12 04:08:29;;;;;;;7.25;5.28;;;;;;;;;;5035889;28;20447;-70
2023/07/12 04:10:55;;;;;;;7.53;5.15;;;;;;;;;;5035582;28;20057;-69
2023/07/12 04:13:22;;;;;;;7.75;5.55;;;;;;;;;;5018140;28;20034;-70
2023/07/12 04:15:47;;;;;;;7.28;4.63;;;;;;;;;;5016692;28;20689;-70
2023/07/12 04:18:12;;;;;;;6.60;4.90;;;;;;;;;;5035625;28;20021;-70
2023/07/12 04:20:38;;;;;;;7.32;5.68;;;;;;;;;;5017771;28;20155;-70
2023/07/12 04:23:04;;;;;;;4.75;3.67;;;;;;;;;;5018062;28;20032;-70
2023/07/12 04:25:29;;;;;;;6.07;4.43;;;;;;;;;;5034553;28;20389;-70
2023/07/12 04:27:54;;;;;;;5.85;5.18;;;;;;;;;;5035606;28;20061;-70
2023/07/12 04:30:20;;;;;;;7.80;5.13;;;;;;;;;;5035959;28;20025;-69
2023/07/12 04:32:47;;;;;;;7.05;4.80;;;;;;;;;;5035821;28;20022;-69
2023/07/12 04:35:13;;;;;;;7.35;5.75;;;;;;;;;;5017768;28;20036;-70
2023/07/12 04:37:45;;;;;;;9.20;6.13;;;;;;;;;;5002488;28;20162;-70
2023/07/12 04:40:11;;;;;;;9.10;5.05;;;;;;;;;;5015744;28;20529;-70
2023/07/12 04:42:36;;;;;;;7.38;4.63;;;;;;;;;;5020201;28;20017;-70
2023/07/12 04:45:03;;;;;;;9.80;6.03;;;;;;;;;;5035311;28;20025;-70
2023/07/12 04:47:28;;;;;;;7.07;4.85;;;;;;;;;;5034657;28;20112;-70
2023/07/12 04:49:53;;;;;;;8.35;6.15;;;;;;;;;;5023650;28;20112;-70
2023/07/12 04:52:19;;;;;;;7.03;5.00;;;;;;;;;;5035076;28;20022;-70
2023/07/12 04:54:45;;;;;;;7.43;5.80;;;;;;;;;;5034991;28;20033;-70
2023/07/12 04:57:11;;;;;;;6.82;5.40;;;;;;;;;;5034689;28;20025;-70
2023/07/12 04:59:36;;;;;;;9.05;5.82;;;;;;;;;;5023643;28;20030;-70
2023/07/12 05:02:02;;;;;;;6.72;4.20;;;;;;;;;;5031561;28;20022;-69
2023/07/12 05:04:27;;;;;;;7.35;5.32;;;;;;;;;;5035130;28;20116;-70
2023/07/12 05:06:53;;;;;;;5.78;4.20;;;;;;;;;;5034961;28;20100;-70
2023/07/12 05:09:20;;;;;;;6.22;3.78;;;;;;;;;;5035219;28;20022;-70
2023/07/12 05:11:45;;;;;;;8.27;5.78;;;;;;;;;;5017266;28;20022;-70
2023/07/12 05:14:10;;;;;;;7.95;5.90;;;;;;;;;;5033700;28;20053;-69
2023/07/12 05:16:36;;;;;;;9.68;6.30;;;;;;;;;;5034746;28;20026;-70
2023/07/12 05:19:02;;;;;;;8.27;6.25;;;;;;;;;;5034153;28;20032;-70
2023/07/12 05:21:27;;;;;;;8.23;5.65;;;;;;;;;;5015490;28;20108;-70
2023/07/12 05:23:52;;;;;;;7.05;5.10;;;;;;;;;;5014962;28;20105;-70
2023/07/12 05:26:18;;;;;;;10.00;6.63;;;;;;;;;;5014732;28;20033;-69
2023/07/12 05:28:43;;;;;;;7.55;5.38;;;;;;;;;;5014732;28;20030;-70
2023/07/12 05:31:10;;;;;;;6.50;4.20;;;;;;;;;;5013026;28;20116;-70
2023/07/12 05:33:36;;;;;;;6.00;3.78;;;;;;;;;;5013515;28;20030;-70
2023/07/12 05:36:01;;;;;;;8.18;4.82;;;;;;;;;;5013446;28;20025;-70
2023/07/12 05:38:27;;;;;;;7.35;5.05;;;;;;;;;;5014803;28;20034;-70
2023/07/12 05:40:52;;;;;;;8.00;3.97;;;;;;;;;;5014009;28;20054;-69
2023/07/12 05:43:22;;;;;;;8.35;5.03;;;;;;;;;;5016489;28;20397;-70
2023/07/12 05:45:48;;;;;;;6.38;4.20;;;;;;;;;;5014554;28;20466;-70
2023/07/12 05:48:13;;;;;;;5.50;3.88;;;;;;;;;;5013733;28;20069;-70
2023/07/12 05:50:38;;;;;;;7.30;3.60;;;;;;;;;;5014265;28;20025;-70
2023/07/12 05:53:04;;;;;;;7.75;4.68;;;;;;;;;;5013808;28;20395;-70
2023/07/12 05:55:31;;;;;;;5.32;3.85;;;;;;;;;;5014142;28;20036;-69
2023/07/12 05:57:56;;;;;;;7.57;3.90;;;;;;;;;;5014080;28;20479;-70
2023/07/12 06:00:22;;;;;;;4.63;3.50;;;;;;;;;;5014445;28;20021;-69
2023/07/12 06:02:47;;;;;;;7.25;3.30;;;;;;;;;;5014200;28;20033;-69
2023/07/12 06:05:12;;;;;;;5.00;3.13;;;;;;;;;;5022106;28;20406;-70
2023/07/12 06:07:37;;;;;;;5.28;3.17;;;;;;;;;;5013823;28;20069;-70
2023/07/12 06:10:03;;;;;;;5.07;3.13;;;;;;;;;;5013989;28;20022;-70
2023/07/12 06:12:28;;;;;;;5.60;3.22;;;;;;;;;;5013318;28;20018;-70
2023/07/12 06:14:53;;;;;;;5.63;2.90;;;;;;;;;;5013925;28;20042;-70
2023/07/12 06:17:19;;;;;;;6.07;2.80;;;;;;;;;;5016626;28;20029;-70
2023/07/12 06:19:44;;;;;;;4.78;3.00;;;;;;;;;;5014043;28;20022;-70
2023/07/12 06:22:10;;;;;;;6.82;3.05;;;;;;;;;;5013530;28;20470;-69
2023/07/12 06:24:35;;;;;;;5.40;2.80;;;;;;;;;;5013477;28;20049;-69
2023/07/12 06:27:00;;;;;;;5.43;2.60;;;;;;;;;;5013795;28;20033;-70
2023/07/12 06:29:27;;;;;;;4.90;2.53;;;;;;;;;;5013720;28;20034;-70
2023/07/12 06:31:54;;;;;;;4.18;2.90;;;;;;;;;;5021149;28;20478;-69
2023/07/12 06:34:19;;;;;;;5.05;2.78;;;;;;;;;;5032806;28;20045;-69
2023/07/12 06:36:44;;;;;;;7.15;2.80;;;;;;;;;;5015765;28;20021;-69
2023/07/12 06:39:10;;;;;;;5.93;3.30;;;;;;;;;;5033272;28;20109;-69
2023/07/12 06:41:35;;;;;;;7.15;2.75;;;;;;;;;;5032983;28;20029;-69
2023/07/12 06:44:00;;;;;;;5.68;2.90;;;;;;;;;;5018882;28;20022;-69
2023/07/12 06:46:26;;;;;;;8.00;3.00;;;;;;;;;;5012951;28;20028;-70
2023/07/12 06:48:51;;;;;;;8.20;3.00;;;;;;;;;;5013190;28;20029;-69
2023/07/12 06:51:16;;;;;;;5.57;2.83;;;;;;;;;;5029696;28;20021;-69
2023/07/12 06:53:43;;;;;;;8.20;2.80;;;;;;;;;;5033026;28;20572;-69
2023/07/12 06:56:08;;;;;;;4.90;2.83;;;;;;;;;;5032597;28;20109;-69
2023/07/12 06:58:33;;;;;;;6.20;2.75;;;;;;;;;;5033055;28;20032;-71
2023/07/12 07:00:59;;;;;;;3.53;2.70;;;;;;;;;;5015402;28;20013;-71
2023/07/12 07:03:24;;;;;;;6.97;2.42;;;;;;;;;;5033004;28;20029;-70
2023/07/12 07:05:49;;;;;;;5.10;2.47;;;;;;;;;;5032732;28;20109;-71
2023/07/12 07:08:17;;;;;;;6.30;3.00;;;;;;;;;;5033004;28;20024;-71
2023/07/12 07:10:49;;;;;;;4.57;3.10;;;;;;;;;;5011568;28;20041;-71
2023/07/12 07:13:14;;;;;;;4.63;2.92;;;;;;;;;;5014624;28;20022;-70
2023/07/12 07:15:40;;;;;;;6.47;2.90;;;;;;;;;;5012719;28;20030;-71
2023/07/12 07:18:06;;;;;;;5.20;2.83;;;;;;;;;;5012442;28;20506;-70
2023/07/12 07:20:32;;;;;;;3.53;2.35;;;;;;;;;;5013195;28;20375;-71
2023/07/12 07:22:58;;;;;;;4.25;2.22;;;;;;;;;;5013159;28;20080;-71
2023/07/12 07:25:26;;;;;;;5.22;2.70;;;;;;;;;;5012555;28;20022;-71
2023/07/12 07:27:52;;;;;;;4.10;2.30;;;;;;;;;;4994893;28;20057;-70
2023/07/12 07:30:17;;;;;;;7.68;2.35;;;;;;;;;;5029667;28;20033;-71
2023/07/12 07:32:43;;;;;;;5.43;2.13;;;;;;;;;;5030399;28;20124;-71
2023/07/12 07:35:09;;;;;;;5.00;2.20;;;;;;;;;;5029763;28;20394;-71
2023/07/12 07:37:34;;;;;;;5.15;2.30;;;;;;;;;;5012943;28;20022;-71
2023/07/12 07:39:59;;;;;;;3.55;2.17;;;;;;;;;;5012988;28;20116;-71
2023/07/12 07:42:25;;;;;;;6.35;2.47;;;;;;;;;;5013099;28;20018;-71
2023/07/12 07:44:50;;;;;;;4.07;2.15;;;;;;;;;;5014465;28;20028;-70
2023/07/12 07:47:15;;;;;;;5.88;2.55;;;;;;;;;;5032411;28;20494;-70
2023/07/12 07:49:40;;;;;;;5.13;2.67;;;;;;;;;;5068524;23;20041;-77
2023/07/12 07:52:06;;;;;;;8.27;2.30;;;;;;;;;;5046692;28;20029;-77
2023/07/12 07:54:31;;;;;;;5.35;2.70;;;;;;;;;;5055836;28;20099;-78
2023/07/12 07:56:56;;;;;;;7.00;2.33;;;;;;;;;;5077216;28;20268;-79
2023/07/12 07:59:22;;;;;;;6.32;2.67;;;;;;;;;;5059055;28;20029;-78
2023/07/12 08:01:47;;;;;;;4.82;2.60;;;;;;;;;;5051523;28;20121;-79
2023/07/12 08:04:13;;;;;;;8.57;3.20;;;;;;;;;;5043165;28;20087;-79
2023/07/12 08:06:39;;;;;;;10.75;4.45;;;;;;;;;;5076598;28;20469;-78
2023/07/12 08:09:06;;;;;;;11.90;3.70;;;;;;;;;;5041608;28;20070;-77
2023/07/12 08:11:31;;;;;;;9.55;3.80;;;;;;;;;;5052854;28;20048;-78
2023/07/12 08:13:56;;;;;;;6.88;3.40;;;;;;;;;;5057156;28;20469;-78
2023/07/12 08:16:26;;;;;;;10.30;3.95;;;;;;;;;;5066978;28;20032;-77
2023/07/12 08:18:51;;;;;;;7.85;3.22;;;;;;;;;;5058815;28;20032;-78
2023/07/12 08:21:16;;;;;;;7.22;3.30;;;;;;;;;;5066482;28;20430;-78
2023/07/12 08:23:41;;;;;;;9.38;3.58;;;;;;;;;;5019125;28;20037;-77
2023/07/12 08:26:07;;;;;;;10.02;4.90;;;;;;;;;;5034934;28;20033;-78
2023/07/12 08:28:32;;;;;;;13.13;3.72;;;;;;;;;;5004417;28;20116;-77
2023/07/12 08:30:57;;;;;;;9.52;4.07;;;;;;;;;;5035696;28;20033;-78
2023/07/12 08:33:22;;;;;;;8.30;3.40;;;;;;;;;;5001874;28;20073;-76
2023/07/12 08:35:48;;;;;;;13.80;4.18;;;;;;;;;;5034803;28;20028;-76
2023/07/12 08:38:13;;;;;;;10.20;4.03;;;;;;;;;;5018338;28;20432;-75
2023/07/12 08:40:44;;;;;;;10.77;3.30;;;;;;;;;;5038351;28;20103;-74
2023/07/12 08:43:13;;;;;;;10.27;3.80;;;;;;;;;;5057357;28;20020;-76
2023/07/12 08:45:38;;;;;;;9.68;3.70;;;;;;;;;;5056654;28;20031;-77
2023/07/12 08:48:08;;;;;;;10.68;4.22;;;;;;;;;;5038001;28;20401;-76
2023/07/12 08:50:44;;;;;;;9.15;3.33;;;;;;;;;;5036704;28;20032;-76
2023/07/12 08:53:12;;;;;;;11.07;4.18;;;;;;;;;;5037349;28;20104;-77
2023/07/12 08:55:37;;;;;;;9.50;3.53;;;;;;;;;;5026455;28;20039;-76
2023/07/12 08:58:24;;;;;;;11.55;3.45;;;;;;;;;;5034974;28;20029;-76
2023/07/12 09:01:06;;;;;;;13.35;4.00;;;;;;;;;;5006389;28;20026;-76
2023/07/12 09:03:31;;;;;;;9.18;3.22;;;;;;;;;;5033734;28;20033;-77
2023/07/12 09:05:57;;;;;;;10.05;2.85;;;;;;;;;;5033933;28;20026;-76
2023/07/12 09:08:36;;;;;;;9.55;3.47;;;;;;;;;;5017265;28;20037;-77
2023/07/12 09:11:01;;;;;;;13.57;3.90;;;;;;;;;;5019165;28;20025;-76
2023/07/12 09:13:38;;;;;;;10.90;3.40;;;;;;;;;;5037127;28;20020;-76
2023/07/12 09:16:05;;;;;;;7.82;2.90;;;;;;;;;;5020056;28;20024;-76
2023/07/12 09:18:34;;;;;;;10.68;3.13;;;;;;;;;;5031842;28;20090;-76
2023/07/12 09:21:01;;;;;;;6.85;3.25;;;;;;;;;;5035107;28;20021;-76
2023/07/12 09:23:33;;;;;;;10.77;3.15;;;;;;;;;;5016905;28;20029;-76
2023/07/12 09:25:58;;;;;;;7.35;3.60;;;;;;;;;;5016381;28;20067;-77
2023/07/12 09:28:24;;;;;;;8.65;3.22;;;;;;;;;;5068564;28;20052;-76
2023/07/12 09:30:51;;;;;;;7.97;3.05;;;;;;;;;;5073524;28;20103;-76
2023/07/12 09:33:21;;;;;;;7.60;2.70;;;;;;;;;;5047696;28;20025;-76
2023/07/12 09:35:47;;;;;;;5.72;2.22;;;;;;;;;;5036338;28;20020;-76
2023/07/12 09:38:24;;;;;;;8.55;2.63;;;;;;;;;;5055292;28;20401;-77
2023/07/12 09:40:50;;;;;;;9.40;2.80;;;;;;;;;;5055756;28;20028;-76
2023/07/12 09:43:18;;;;;;;6.65;2.47;;;;;;;;;;5073713;28;20501;-77
2023/07/12 09:46:06;;;;;;;5.97;2.33;;;;;;;;;;5035938;28;20029;-76
2023/07/12 09:48:42;;;;;;;9.20;2.80;;;;;;;;;;5014769;28;20041;-77
2023/07/12 09:51:52;;;;;;;8.32;2.55;;;;;;;;;;5041689;28;20054;-77
2023/07/12 09:54:36;;;;;;;6.93;2.58;;;;;;;;;;5055937;28;20111;-73
2023/07/12 09:57:10;;;;;;;9.02;2.85;;;;;;;;;;5026759;28;20064;-74
2023/07/12 09:59:51;;;;;;;6.22;2.30;;;;;;;;;;5015774;28;20025;-74
2023/07/12 10:02:38;;;;;;;8.52;2.67;;;;;;;;;;5038686;28;20509;-75
2023/07/12 10:05:08;;;;;;;11.65;3.22;;;;;;;;;;5015360;28;20064;-74
2023/07/12 10:07:55;;;;;;;8.52;3.10;;;;;;;;;;5018614;28;20398;-76
2023/07/12 10:10:52;;;;;;;10.82;3.40;;;;;;;;;;5033640;28;20035;-78
2023/07/12 10:13:36;;;;;;;7.70;3.00;;;;;;;;;;5043823;28;20045;-76
2023/07/12 10:16:03;;;;;;;6.75;2.65;;;;;;;;;;5031824;28;20031;-77
2023/07/12 10:18:32;;;;;;;7.80;2.90;;;;;;;;;;5014923;28;20036;-76
2023/07/12 10:20:58;;;;;;;5.57;2.47;;;;;;;;;;5015296;28;20030;-77
2023/07/12 10:23:26;;;;;;;13.48;2.95;;;;;;;;;;5014197;28;20171;-75
2023/07/12 10:25:58;;;;;;;9.05;2.72;;;;;;;;;;5029121;28;20025;-76
2023/07/12 10:28:55;;;;;;;7.07;2.58;;;;;;;;;;5051989;28;20032;-76
2023/07/12 10:31:39;;;;;;;10.15;2.38;;;;;;;;;;5029986;28;20028;-76
2023/07/12 10:34:27;;;;;;;8.00;2.50;;;;;;;;;;5033577;28;20524;-75
2023/07/12 10:36:55;;;;;;;5.40;2.03;;;;;;;;;;5042342;28;20193;-74
2023/07/12 10:39:23;;;;;;;7.97;3.40;;;;;;;;;;5034009;28;20032;-75
2023/07/12 10:41:53;;;;;;;5.95;1.80;;;;;;;;;;5030455;28;20567;-74
2023/07/12 10:44:19;;;;;;;;;;;;;;;;;;5027336;28;20082;-74
2023/07/12 10:46:49;;;;;;;8.95;2.20;;;;;;;;;;5030824;28;20285;-75
2023/07/12 10:49:20;;;;;;;4.78;2.10;;;;;;;;;;5025123;28;20412;-78
2023/07/12 10:52:15;;;;;;;6.00;2.00;;;;;;;;;;5009067;28;20109;-77
2023/07/12 10:54:51;;;;;;;5.25;2.22;;;;;;;;;;5043407;28;20028;-77
2023/07/12 10:57:19;;;;;;;5.68;1.90;;;;;;;;;;5035031;28;20029;-78
2023/07/12 10:59:45;;;;;;;7.78;2.20;;;;;;;;;;5028657;28;20406;-77
2023/07/12 11:02:22;;;;;;;5.38;2.05;;;;;;;;;;4998372;28;20013;-77
2023/07/12 11:04:48;;;;;;;8.18;2.85;;;;;;;;;;5031223;28;20024;-77
2023/07/12 11:07:14;;;;;;;6.43;1.95;;;;;;;;;;5030910;28;20045;-77
2023/07/12 11:09:45;;;;;;;7.78;2.33;;;;;;;;;;5030557;28;20475;-77
2023/07/12 11:12:16;;;;;;;4.57;1.85;;;;;;;;;;5032708;28;20017;-77
2023/07/12 11:14:44;;;;;;;9.02;2.50;;;;;;;;;;5029970;28;20043;-75
2023/07/12 11:17:13;;;;;;;3.22;1.80;;;;;;;;;;5030483;28;20108;-76
2023/07/12 11:19:38;;;;;;;9.18;2.28;;;;;;;;;;5030599;28;20033;-75
2023/07/12 11:22:14;;;;;;;4.07;2.20;;;;;;;;;;5031851;28;20076;-76
2023/07/12 11:24:55;;;;;;;3.95;2.05;;;;;;;;;;5031674;28;20371;-76
2023/07/12 11:27:43;;;;;;;6.05;2.28;;;;;;;;;;5030481;28;20022;-76
2023/07/12 11:30:26;;;;;;;6.10;2.17;;;;;;;;;;5017766;28;20375;-75
2023/07/12 11:33:04;;;;;;;5.32;2.38;;;;;;;;;;5034414;28;20064;-76
2023/07/12 11:35:47;;;;;;;6.32;2.60;;;;;;;;;;5035294;28;20572;-75
2023/07/12 11:38:18;;;;;;;9.05;3.83;;;;;;;;;;5034617;28;20033;-75
2023/07/12 11:40:43;;;;;;;5.95;2.00;;;;;;;;;;5034699;28;20394;-76
2023/07/12 11:43:24;;;;;;;6.93;2.55;;;;;;;;;;5017825;28;20021;-75
2023/07/12 11:45:49;;;;;;;5.38;2.70;;;;;;;;;;5035546;28;20025;-75
2023/07/12 11:48:15;;;;;;;6.95;2.67;;;;;;;;;;5017489;28;20031;-78
2023/07/12 11:50:40;;;;;;;4.75;2.50;;;;;;;;;;5018058;28;20079;-78
2023/07/12 11:53:05;;;;;;;7.00;2.50;;;;;;;;;;5034924;28;20065;-78
2023/07/12 11:55:33;;;;;;;10.05;2.78;;;;;;;;;;5034812;28;20060;-78
2023/07/12 11:57:59;;;;;;;6.38;2.83;;;;;;;;;;5033619;28;20025;-78
2023/07/12 12:00:28;;;;;;;9.10;2.28;;;;;;;;;;5034300;28;20036;-78
2023/07/12 12:02:55;;;;;;;6.45;2.33;;;;;;;;;;5033924;28;20032;-78
2023/07/12 12:05:26;;;;;;;3.95;2.13;;;;;;;;;;5035460;28;20028;-78
2023/07/12 12:07:53;;;;;;;8.52;2.38;;;;;;;;;;5018069;28;20067;-78
2023/07/12 12:10:32;;;;;;;6.47;2.15;;;;;;;;;;5034470;28;20035;-78
2023/07/12 12:12:57;;;;;;;8.05;1.77;;;;;;;;;;5033923;28;20028;-78
2023/07/12 12:15:25;;;;;;;3.78;1.73;;;;;;;;;;5035331;28;20030;-78
2023/07/12 12:17:53;;;;;;;5.82;2.30;;;;;;;;;;5034331;28;20387;-75
2023/07/12 12:20:23;;;;;;;4.10;2.13;;;;;;;;;;5000642;28;20029;-78
2023/07/12 12:23:15;;;;;;;3.83;1.63;;;;;;;;;;5034249;28;20027;-78
2023/07/12 12:25:50;;;;;;;6.38;1.90;;;;;;;;;;5035505;28;20034;-78
2023/07/12 12:28:31;;;;;;;3.92;2.08;;;;;;;;;;5017234;28;20029;-76
2023/07/12 12:31:17;;;;;;;4.28;2.00;;;;;;;;;;5033674;28;20024;-76
2023/07/12 12:33:48;;;;;;;3.92;1.75;;;;;;;;;;5039490;28;20487;-76
2023/07/12 12:36:24;;;;;;;3.03;1.58;;;;;;;;;;5067111;28;20481;-75
2023/07/12 12:38:58;;;;;;;2.80;1.80;;;;;;;;;;5055945;28;20029;-75
2023/07/12 12:41:24;;;;;;;5.05;2.60;;;;;;;;;;5039219;28;20016;-76
2023/07/12 12:43:56;;;;;;;4.20;1.75;;;;;;;;;;5039148;28;20040;-76
2023/07/12 12:46:21;;;;;;;4.50;2.17;;;;;;;;;;5036538;28;20024;-76
2023/07/12 12:48:54;;;;;;;3.72;1.70;;;;;;;;;;5054053;28;20028;-75
2023/07/12 12:51:23;;;;;;;5.25;2.33;;;;;;;;;;5037594;28;20112;-77
2023/07/12 12:53:48;;;;;;;5.30;1.80;;;;;;;;;;5016786;28;20029;-77
2023/07/12 12:56:14;;;;;;;4.63;1.80;;;;;;;;;;5000412;28;20029;-78
2023/07/12 12:58:39;;;;;;;3.50;2.22;;;;;;;;;;5019285;28;20029;-78
2023/07/12 13:01:04;;;;;;;4.30;2.50;;;;;;;;;;5035049;28;20022;-78
2023/07/12 13:03:30;;;;;;;3.58;2.00;;;;;;;;;;5017214;28;20033;-78
2023/07/12 13:05:55;;;;;;;5.45;2.40;;;;;;;;;;5034870;28;20057;-79
2023/07/12 13:08:20;;;;;;;6.68;2.08;;;;;;;;;;5033513;28;20059;-76
2023/07/12 13:10:46;;;;;;;3.67;1.70;;;;;;;;;;5048992;28;20021;-75
2023/07/12 13:13:19;;;;;;;5.30;2.15;;;;;;;;;;5036285;28;20025;-76
2023/07/12 13:15:44;;;;;;;6.72;2.15;;;;;;;;;;5051429;28;20098;-75
2023/07/12 13:18:13;;;;;;;5.70;2.45;;;;;;;;;;5043814;28;20068;-77
2023/07/12 13:20:39;;;;;;;9.35;2.25;;;;;;;;;;4999252;28;20384;-78
2023/07/12 13:23:04;;;;;;;4.20;2.25;;;;;;;;;;5038318;28;20024;-77
2023/07/12 13:25:31;;;;;;;4.60;1.92;;;;;;;;;;5035484;28;20025;-78
2023/07/12 13:27:56;;;;;;;5.75;2.45;;;;;;;;;;5019919;28;20389;-78
2023/07/12 13:30:25;;;;;;;4.25;2.15;;;;;;;;;;5034555;28;20112;-77
2023/07/12 13:32:51;;;;;;;6.28;1.95;;;;;;;;;;5015275;28;20071;-78
2023/07/12 13:35:19;;;;;;;4.75;2.03;;;;;;;;;;5016604;28;20564;-78
2023/07/12 13:37:45;;;;;;;3.22;1.80;;;;;;;;;;5016351;28;20103;-78
2023/07/12 13:40:16;;;;;;;4.40;2.05;;;;;;;;;;5018317;28;20502;-78
2023/07/12 13:42:43;;;;;;;2.95;1.80;;;;;;;;;;5018130;28;20010;-76
2023/07/12 13:45:10;;;;;;;6.07;2.17;;;;;;;;;;5032853;28;20060;-76
2023/07/12 13:47:35;;;;;;;6.57;2.33;;;;;;;;;;5017334;28;20025;-75
2023/07/12 13:50:01;;;;;;;5.70;2.08;;;;;;;;;;5026006;23;20384;-70
2023/07/12 13:52:28;;;;;;;4.30;2.33;;;;;;;;;;5008125;28;20054;-70
2023/07/12 13:54:53;;;;;;;7.95;2.65;;;;;;;;;;4995609;28;20376;-70
2023/07/12 13:57:24;;;;;;;4.78;2.33;;;;;;;;;;5005861;28;20087;-70
2023/07/12 13:59:49;;;;;;;4.03;2.40;;;;;;;;;;5003418;28;20084;-70
2023/07/12 14:02:20;;;;;;;4.82;2.40;;;;;;;;;;4975523;28;20026;-70
2023/07/12 14:04:46;;;;;;;5.18;2.15;;;;;;;;;;4978593;28;20372;-70
2023/07/12 14:07:12;;;;;;;3.45;2.78;;;;;;;;;;4992916;28;20041;-70
2023/07/12 14:09:37;;;;;;;5.38;2.90;;;;;;;;;;4977772;28;20506;-70
2023/07/12 14:12:04;;;;;;;5.82;2.70;;;;;;;;;;4975369;28;20030;-70
2023/07/12 14:14:29;;;;;;;5.93;2.70;;;;;;;;;;4981007;28;20072;-70
2023/07/12 14:16:54;;;;;;;4.30;2.53;;;;;;;;;;4996347;28;20049;-70
2023/07/12 14:19:20;;;;;;;5.45;2.47;;;;;;;;;;4995796;28;20442;-70
2023/07/12 14:21:45;;;;;;;5.90;2.60;;;;;;;;;;4994319;28;20022;-71
2023/07/12 14:24:13;;;;;;;5.30;2.42;;;;;;;;;;4976614;28;20029;-71
2023/07/12 14:26:39;;;;;;;7.80;2.10;;;;;;;;;;4996403;28;20054;-71
2023/07/12 14:29:04;;;;;;;6.78;2.80;;;;;;;;;;4993769;28;20065;-70
2023/07/12 14:31:30;;;;;;;5.30;2.28;;;;;;;;;;4984293;28;20060;-71
2023/07/12 14:33:55;;;;;;;5.07;2.22;;;;;;;;;;4994078;28;20168;-70
2023/07/12 14:36:23;;;;;;;6.28;3.13;;;;;;;;;;4993624;28;20030;-70
2023/07/12 14:38:49;;;;;;;5.10;1.98;;;;;;;;;;4995309;28;20057;-70
2023/07/12 14:41:30;;;;;;;4.20;1.90;;;;;;;;;;4977351;28;20018;-70
2023/07/12 14:43:59;;;;;;;3.38;1.67;;;;;;;;;;5004149;28;20079;-70
2023/07/12 14:46:25;;;;;;;3.45;2.08;;;;;;;;;;4996104;28;20518;-71
2023/07/12 14:48:50;;;;;;;4.28;1.83;;;;;;;;;;4991371;28;20029;-70